Latest Weather Observations for Pearce

IDW60801

Issued at 2:04 pm WST Wednesday 22 February 2017 (issued every 30 minutes, with the page automatically refreshed every 10 minutes)

About weather observations | Map of weather stations | Latest weather observations for WA | Other Formats
Station Details ID: 009053 Name: PEARCE RAAF Lat: -31.67 Lon: 116.02 Height: 40.0 m
Data from the previous 72 hours. | See also: Recent months at Pearce
Date/Time
WST
Temp
°C
App
Temp
°C
Dew
Point
°C
Rel
Hum
%
Delta-T
°C
Wind Press
QNH
hPa
Press
MSL
hPa
Rain since
9am
mm
Dir  Spd
km/h
Gust
km/h
Spd
kts
Gust
kts
22/01:30pm 23.6 21.3 10.3 43 7.3 SSW 13 19 7 10 1020.2 1019.9 0.0
22/01:00pm 22.5 20.7 9.3 43 7.1 SSE 9 15 5 8 1020.4 1020.1 0.0
22/12:30pm 22.5 20.7 10.9 48 6.4 SW 11 24 6 13 1020.6 1020.3 0.0
22/12:00pm 22.0 19.9 9.9 46 6.5 SW 11 17 6 9 1020.9 1020.6 0.0
22/11:30am 20.6 18.7 9.2 48 6.1 SSW 9 17 5 9 1021.5 1021.2 0.0
22/11:00am 21.6 20.5 10.7 50 6.0 NE 7 9 4 5 1021.8 1021.6 0.0
22/10:30am 19.5 17.6 9.1 51 5.5 S 9 43 5 23 1022.0 1021.8 0.0
22/10:00am 19.9 18.2 9.8 52 5.4 SE 9 20 5 11 1022.1 1021.9 0.0
22/09:30am 18.9 16.6 9.1 53 5.1 SSE 11 17 6 9 1022.1 1021.9 0.0
22/09:00am 18.4 16.7 9.7 57 4.6 S 9 15 5 8 1022.1 1021.9 0.0
22/08:30am 16.9 15.4 10.7 67 3.3 S 9 17 5 9 1022.3 1022.1 0.0
22/08:00am 15.2 14.7 12.0 81 1.7 NNW 6 7 3 4 1022.2 1022.0 0.0
22/07:30am 12.2 12.4 10.4 89 0.9 CALM 0 0 0 0 1021.8 1021.6 0.0
22/07:00am 10.3 10.0 8.7 90 0.8 CALM 0 0 0 0 1021.5 1021.2 0.0
22/06:30am 9.1 8.5 7.5 90 0.8 CALM 0 6 0 3 1021.1 1020.8 0.0
22/06:00am 9.1 7.8 7.7 91 0.7 WNW 4 6 2 3 1020.7 1020.4 0.0
22/05:30am 8.9 7.2 7.4 90 0.7 WNW 6 7 3 4 1020.2 1019.9 0.0
22/05:00am 9.0 6.7 7.6 91 0.7 WNW 9 9 5 5 1020.1 1019.8 0.0
22/04:30am 9.3 8.0 7.6 89 0.8 WSW 4 7 2 4 1019.8 1019.5 0.0
22/04:00am 9.5 8.9 7.6 88 0.9 CALM 0 0 0 0 1019.7 1019.4 0.0
22/03:30am 9.9 9.0 7.8 87 1.0 SSW 2 6 1 3 1019.6 1019.3 0.0
22/03:00am 10.4 9.0 8.8 90 0.8 SSW 6 7 3 4 1019.3 1019.0 0.0
22/02:30am 10.0 9.6 8.3 89 0.8 CALM 0 4 0 2 1019.2 1018.9 0.0
22/02:00am 10.1 8.5 8.0 87 1.0 NNW 6 6 3 3 1019.1 1018.8 0.0
22/01:30am 10.8 10.5 8.6 86 1.1 CALM 0 0 0 0 1018.9 1018.6 0.0
22/01:00am 10.7 10.4 8.5 86 1.1 CALM 0 0 0 0 1019.1 1018.8 0.0
22/12:30am 10.6 10.2 8.2 85 1.2 CALM 0 0 0 0 1019.2 1018.9 0.0
22/12:00am 12.0 11.7 8.8 81 1.6 CALM 0 2 0 1 1019.1 1018.8 0.0
 
Date/Time
WST
Temp
°C
App
Temp
°C
Dew
Point
°C
Rel
Hum
%
Delta-T
°C
Wind Press
QNH
hPa
Press
MSL
hPa
Rain since
9am
mm
Dir  Spd
km/h
Gust
km/h
Spd
kts
Gust
kts
21/11:30pm 13.4 12.2 9.6 78 1.9 NNW 6 6 3 3 1019.2 1018.9 0.0
21/11:14pm 12.5 - 9.1 80 1.7 - - - - - 1019.1 1018.9 -
21/11:00pm 12.5 11.2 9.3 81 1.6 NNW 6 7 3 4 1019.2 1018.9 0.0
21/10:30pm 14.4 13.1 9.2 71 2.7 SW 6 7 3 4 1019.2 1018.9 0.0
21/10:00pm 14.7 13.8 9.3 70 2.8 SSW 4 7 2 4 1019.3 1019.0 0.0
21/09:30pm 15.1 13.7 8.8 66 3.2 SSW 6 7 3 4 1019.0 1018.7 0.0
21/09:00pm 15.3 13.4 9.0 66 3.2 SSW 9 11 5 6 1018.7 1018.4 0.0
21/08:30pm 16.2 12.8 9.2 63 3.6 SSW 17 20 9 11 1018.4 1018.1 0.0
21/08:00pm 16.1 13.5 9.5 65 3.4 SSW 13 19 7 10 1018.1 1017.8 0.0
21/07:30pm 17.0 13.1 9.4 61 4.0 SSW 20 26 11 14 1017.6 1017.3 0.0
21/07:00pm 17.7 13.1 9.6 59 4.3 SSW 24 39 13 21 1017.3 1017.0 0.0
21/06:30pm 18.0 12.9 9.1 56 4.6 SW 26 35 14 19 1016.8 1016.5 0.0
21/06:00pm 18.9 13.0 9.1 53 5.1 SW 30 39 16 21 1016.4 1016.1 0.0
21/05:30pm 18.7 13.4 9.8 56 4.7 SW 28 37 15 20 1015.9 1015.6 0.0
21/05:00pm 20.0 13.4 8.4 47 6.0 SW 33 43 18 23 1015.7 1015.4 0.0
21/04:30pm 20.9 13.8 8.2 44 6.6 SW 35 43 19 23 1015.4 1015.1 0.0
21/04:00pm 21.0 14.8 9.3 47 6.2 SSW 32 44 17 24 1015.4 1015.1 0.0
21/03:45pm 21.1 14.5 8.7 45 6.5 SSW 33 52 18 28 1015.4 1015.1 0.0
21/03:30pm 21.4 15.2 9.3 46 6.5 SW 32 43 17 23 1015.4 1015.1 0.0
21/03:10pm 21.3 14.5 7.5 41 7.1 SW 33 52 18 28 1015.4 1015.1 0.0
21/03:00pm 21.4 14.0 8.3 43 6.9 SW 37 48 20 26 1015.4 1015.1 0.0
21/02:30pm 22.3 15.0 8.8 42 7.2 SW 37 50 20 27 1015.4 1015.1 0.0
21/02:00pm 22.5 15.0 7.9 39 7.7 SW 37 48 20 26 1015.3 1015.0 0.0
21/01:41pm 21.9 14.9 8.4 42 7.1 SW 35 54 19 29 1015.5 1015.2 0.0
21/01:30pm 22.2 14.9 8.7 42 7.2 SW 37 50 20 27 1015.3 1015.0 0.0
21/01:02pm 21.0 14.4 8.6 45 6.5 SW 33 52 18 28 1015.2 1014.9 0.0
21/01:00pm 22.0 15.8 9.9 46 6.6 SW 33 44 18 24 1015.2 1014.9 0.0
21/12:30pm 21.4 14.2 7.6 41 7.2 SW 35 48 19 26 1015.2 1014.9 0.0
21/12:01pm 21.6 14.5 6.3 37 7.7 SW 33 52 18 28 1015.2 1014.9 0.0
21/12:00pm 22.6 15.2 6.8 36 8.1 SW 35 52 19 28 1015.3 1015.0 0.0
21/11:30am 22.0 15.1 7.4 39 7.6 SW 33 46 18 25 1015.2 1014.9 0.0
21/11:00am 20.0 12.6 8.4 47 6.0 SW 37 52 20 28 1015.3 1015.0 0.0
21/10:30am 21.0 13.6 9.9 49 6.0 SW 39 57 21 31 1015.2 1014.9 0.0
21/10:12am 22.3 16.4 12.3 53 5.7 SSW 35 54 19 29 1015.1 1014.8 0.0
21/10:00am 21.2 14.9 11.0 52 5.6 SW 35 50 19 27 1014.8 1014.6 0.0
21/09:38am 21.6 16.5 11.9 54 5.4 SW 30 48 16 26 1014.7 1014.5 0.0
21/09:30am 20.3 13.6 12.3 60 4.5 SW 39 52 21 28 1014.6 1014.4 0.0
21/09:23am 19.5 13.8 11.8 61 4.3 SW 33 52 18 28 1014.3 1014.1 0.0
21/09:00am 19.4 14.3 13.1 67 3.6 SW 32 48 17 26 1014.1 1013.9 0.0
21/08:59am 19.3 14.5 13.0 67 3.6 SW 30 48 16 26 1014.1 1013.9 0.0
21/08:30am 18.3 16.1 15.0 81 1.9 SW 20 30 11 16 1013.9 1013.7 0.0
21/08:00am 19.3 17.0 14.6 74 2.7 SW 20 28 11 15 1013.6 1013.4 0.0
21/07:30am 18.6 13.8 14.1 75 2.6 WSW 32 43 17 23 1013.1 1012.9 0.0
21/07:09am 18.4 14.6 14.7 79 2.1 WSW 28 46 15 25 1012.9 1012.7 0.0
21/07:00am 17.8 17.1 14.3 80 2.0 WNW 11 22 6 12 1012.8 1012.6 0.0
21/06:30am 15.2 13.4 12.0 81 1.7 N 13 15 7 8 1012.4 1012.2 0.0
21/06:00am 14.7 13.1 11.5 81 1.7 NNW 11 13 6 7 1012.2 1012.0 0.0
21/05:30am 14.2 12.4 10.8 80 1.8 NNW 11 13 6 7 1012.1 1011.9 0.0
21/05:00am 14.1 12.5 10.3 78 2.0 NW 9 11 5 6 1012.0 1011.8 0.0
21/04:30am 14.8 12.9 10.6 76 2.2 WNW 11 13 6 7 1011.7 1011.5 0.0
21/04:00am 16.1 14.4 11.1 72 2.7 WNW 11 13 6 7 1011.7 1011.5 0.0
21/03:30am 16.7 15.2 11.8 73 2.7 W 11 15 6 8 1011.7 1011.5 0.0
21/03:00am 17.4 15.8 12.7 74 2.6 WSW 13 17 7 9 1012.0 1011.8 0.0
21/02:30am 17.8 15.1 12.9 73 2.7 W 19 24 10 13 1012.0 1011.8 0.0
21/02:00am 17.6 15.6 11.6 68 3.3 W 13 15 7 8 1012.3 1012.1 0.0
21/01:30am 17.7 14.9 11.3 66 3.5 WSW 17 22 9 12 1012.4 1012.2 0.0
21/01:00am 17.9 16.5 12.1 69 3.2 WSW 11 17 6 9 1012.4 1012.2 0.0
21/12:30am 17.4 16.5 12.5 73 2.7 SW 9 11 5 6 1012.8 1012.6 0.0
21/12:00am 17.3 16.0 12.6 74 2.6 SW 11 15 6 8 1013.0 1012.8 0.0
 
Date/Time
WST
Temp
°C
App
Temp
°C
Dew
Point
°C
Rel
Hum
%
Delta-T
°C
Wind Press
QNH
hPa
Press
MSL
hPa
Rain since
9am
mm
Dir  Spd
km/h
Gust
km/h
Spd
kts
Gust
kts
20/11:30pm 16.8 15.1 12.3 75 2.5 SW 13 15 7 8 1012.8 1012.6 0.0
20/11:00pm 17.2 15.5 12.3 73 2.7 WSW 13 15 7 8 1012.9 1012.7 0.0
20/10:30pm 18.6 16.1 12.4 67 3.5 SW 17 24 9 13 1013.0 1012.8 0.0
20/10:00pm 19.3 16.6 13.5 69 3.3 SSW 20 30 11 16 1013.4 1013.2 0.0
20/09:30pm 19.4 16.9 14.2 72 3.0 SW 20 30 11 16 1013.6 1013.4 0.0
20/09:00pm 19.1 17.6 15.2 78 2.3 SW 17 26 9 14 1013.5 1013.3 0.0
20/08:30pm 18.7 17.9 15.0 79 2.2 WSW 13 19 7 10 1012.9 1012.7 0.0
20/08:00pm 19.0 17.7 14.9 77 2.4 SW 15 20 8 11 1012.7 1012.5 0.0
20/07:30pm 19.5 17.6 15.2 76 2.5 SW 19 26 10 14 1012.3 1012.1 0.0
20/07:00pm 20.1 18.0 15.1 73 2.9 SW 20 28 11 15 1011.8 1011.6 0.0
20/06:30pm 20.7 17.4 14.1 66 3.8 SSW 24 33 13 18 1011.3 1011.1 0.0
20/06:00pm 21.8 18.2 14.2 62 4.4 SW 26 35 14 19 1011.1 1010.9 0.0
20/05:30pm 22.7 19.7 14.8 61 4.7 SW 24 33 13 18 1010.7 1010.5 0.0
20/05:00pm 23.3 20.3 14.8 59 5.1 SSW 24 30 13 16 1010.7 1010.5 0.0
20/04:30pm 24.0 20.6 13.8 53 6.0 WSW 24 32 13 17 1010.5 1010.3 0.0
20/04:00pm 25.1 22.0 14.6 52 6.3 WSW 24 33 13 18 1010.3 1010.1 0.0
20/03:30pm 25.8 22.6 14.3 49 6.9 WSW 24 32 13 17 1010.3 1010.1 0.0
20/03:00pm 25.2 21.8 13.7 49 6.8 SW 24 32 13 17 1010.5 1010.3 0.0
20/02:30pm 26.8 23.7 14.5 46 7.4 SW 24 33 13 18 1010.8 1010.6 0.0
20/02:00pm 26.6 24.0 15.0 49 7.0 WSW 22 30 12 16 1011.2 1011.0 0.0
20/01:30pm 27.4 25.4 15.4 48 7.3 WSW 20 30 11 16 1011.5 1011.3 0.0
20/01:00pm 27.3 25.7 16.0 50 7.0 SW 19 28 10 15 1012.0 1011.8 0.0
20/12:30pm 27.0 26.3 16.3 52 6.6 WSW 15 24 8 13 1012.1 1011.9 0.0
20/12:00pm 25.6 23.5 14.7 51 6.5 SSW 19 26 10 14 1012.4 1012.2 0.0
20/11:30am 26.9 26.9 17.1 55 6.1 S 13 24 7 13 1012.5 1012.3 0.0
20/11:00am 26.0 26.5 16.5 55 5.9 SSW 9 19 5 10 1012.9 1012.7 0.0
20/10:30am 24.5 24.4 16.0 59 5.2 S 11 19 6 10 1013.1 1012.9 0.0
20/10:00am 24.4 23.6 16.1 60 5.1 S 15 19 8 10 1013.2 1013.0 0.0
20/09:30am 23.0 23.0 16.3 66 4.1 SSW 11 19 6 10 1013.5 1013.3 0.0
20/09:00am 22.8 21.0 15.6 64 4.3 SSW 19 24 10 13 1013.3 1013.1 0.0
20/08:30am 22.3 21.5 17.0 72 3.3 SW 17 20 9 11 1013.3 1013.1 0.0
20/08:00am 21.7 20.9 18.1 80 2.2 S 19 22 10 12 1013.0 1012.8 0.0
20/07:30am 20.6 20.0 18.5 88 1.3 SSW 19 24 10 13 1012.9 1012.7 0.0
20/07:00am 20.1 21.6 18.9 93 0.8 N 9 11 5 6 1012.8 1012.6 0.0
20/06:30am 19.1 21.5 17.9 93 0.7 N 2 7 1 4 1012.7 1012.5 0.0
20/06:00am 18.4 20.9 17.2 93 0.7 CALM 0 0 0 0 1012.7 1012.5 0.0
20/05:30am 18.8 21.0 17.5 92 0.8 N 2 6 1 3 1012.4 1012.2 0.0
20/05:00am 18.5 21.0 17.2 92 0.8 CALM 0 0 0 0 1012.3 1012.1 0.0
20/04:35am 18.3 19.6 17.0 92 0.8 N 6 6 3 3 1012.3 1012.1 0.0
20/04:30am 18.3 19.6 17.0 92 0.8 N 6 7 3 4 1012.3 1012.1 0.0
20/04:00am 18.8 19.6 17.3 91 0.9 N 9 11 5 6 1012.1 1011.9 0.0
20/03:30am 19.2 19.4 17.7 91 0.9 N 13 15 7 8 1012.1 1011.9 0.0
20/03:00am 19.3 19.8 17.4 89 1.2 N 11 13 6 7 1012.1 1011.9 0.0
20/02:30am 19.4 20.3 17.5 89 1.2 N 9 13 5 7 1012.3 1012.1 0.0
20/02:00am 20.2 21.2 17.8 86 1.5 N 9 11 5 6 1012.6 1012.4 0.0
20/01:30am 20.8 23.1 17.6 82 2.0 SSW 2 7 1 4 1012.5 1012.3 0.0
20/01:00am 21.2 23.5 17.6 80 2.2 N 2 6 1 3 1012.7 1012.5 0.0
20/12:30am 21.3 22.8 17.7 80 2.2 N 6 7 3 4 1012.9 1012.7 0.0
20/12:00am 21.6 23.0 17.8 79 2.4 N 7 9 4 5 1013.1 1012.9 0.0
 
Date/Time
WST
Temp
°C
App
Temp
°C
Dew
Point
°C
Rel
Hum
%
Delta-T
°C
Wind Press
QNH
hPa
Press
MSL
hPa
Rain since
9am
mm
Dir  Spd
km/h
Gust
km/h
Spd
kts
Gust
kts
19/11:30pm 22.0 23.6 17.8 77 2.6 NW 6 9 3 5 1013.2 1013.0 0.0
19/11:00pm 22.1 23.7 18.3 79 2.4 WNW 7 9 4 5 1013.1 1012.9 0.0
19/10:30pm 22.7 24.7 18.7 78 2.5 WNW 6 7 3 4 1013.1 1012.9 0.0
19/10:00pm 23.3 25.8 19.9 81 2.2 WNW 6 7 3 4 1013.2 1013.0 0.0
19/09:30pm 23.7 26.3 20.4 82 2.1 WNW 7 9 4 5 1013.1 1012.9 0.0
19/09:00pm 24.0 26.2 20.3 80 2.4 WSW 9 11 5 6 1013.0 1012.8 0.0
19/08:30pm 24.5 27.1 20.4 78 2.7 SW 7 9 4 5 1012.7 1012.5 0.0
19/08:00pm 25.3 26.8 20.5 75 3.1 SW 13 17 7 9 1012.3 1012.1 0.0
19/07:30pm 26.5 28.2 20.1 68 4.2 W 11 13 6 7 1012.1 1011.9 0.0
19/07:00pm 27.9 29.0 19.7 61 5.3 WSW 13 15 7 8 1011.7 1011.5 0.0
19/06:30pm 29.6 29.2 18.1 50 7.4 WSW 17 20 9 11 1011.4 1011.2 0.0
19/06:00pm 31.4 30.7 17.3 43 9.0 W 17 20 9 11 1011.2 1011.0 0.0
19/05:30pm 32.9 32.3 17.5 39 9.9 W 17 22 9 12 1011.1 1010.9 0.0
19/05:00pm 33.4 32.7 18.3 40 9.8 W 19 24 10 13 1011.2 1011.0 0.0
19/04:30pm 34.0 33.0 18.9 41 9.9 W 22 28 12 15 1011.1 1010.9 0.0
19/04:00pm 34.4 32.4 18.4 38 10.4 W 26 32 14 17 1011.2 1011.0 0.0
19/03:30pm 35.1 33.5 19.1 39 10.6 W 26 35 14 19 1011.3 1011.1 0.0
19/03:00pm 36.0 34.7 19.0 36 11.2 W 24 35 13 19 1011.3 1011.1 0.0
19/02:30pm 35.9 34.0 18.5 36 11.4 W 26 35 14 19 1011.4 1011.2 0.0

Other Formats:

Comma delimited format used in spreadsheet applications
http://www.bom.gov.au/fwo/IDW60801/IDW60801.94612.axf

JavaScript Object Notation format (JSON) in row-major order
http://www.bom.gov.au/fwo/IDW60801/IDW60801.94612.json